createdAt,value
2023-05-20T00:00:57.453Z,33.68
2023-05-20T00:04:14.705Z,33.00
2023-05-20T00:07:32.162Z,33.30
2023-05-20T00:10:49.596Z,32.33
2023-05-20T00:14:06.468Z,35.08
2023-05-20T00:17:23.276Z,35.58
2023-05-20T00:20:40.917Z,34.60
2023-05-20T00:23:59.510Z,34.05
2023-05-20T00:27:16.354Z,34.68
2023-05-20T00:30:33.176Z,33.13
2023-05-20T00:33:50.252Z,35.13
2023-05-20T00:37:07.261Z,33.90
2023-05-20T00:40:26.237Z,34.10
2023-05-20T00:43:43.065Z,35.58
2023-05-20T00:47:01.096Z,32.90
2023-05-20T00:50:20.454Z,34.25
2023-05-20T00:53:37.160Z,31.68
2023-05-20T00:56:53.959Z,33.78
2023-05-20T01:00:15.004Z,35.18
2023-05-20T01:03:32.211Z,33.33
2023-05-20T01:06:49.155Z,35.75
2023-05-20T01:10:06.649Z,34.63
2023-05-20T01:13:28.563Z,33.30
2023-05-20T01:16:46.383Z,32.75
2023-05-20T01:20:08.725Z,31.80
2023-05-20T01:23:25.293Z,29.50
2023-05-20T01:26:41.923Z,29.48
2023-05-20T01:30:01.131Z,30.55
2023-05-20T01:33:21.899Z,29.38
2023-05-20T01:36:42.482Z,30.70
2023-05-20T01:40:01.940Z,30.15
2023-05-20T01:43:19.484Z,29.93
2023-05-20T01:46:40.195Z,30.08
2023-05-20T01:49:57.069Z,31.43
2023-05-20T01:53:14.367Z,32.43
2023-05-20T01:56:31.051Z,31.33
2023-05-20T01:59:48.413Z,30.85
2023-05-20T02:03:05.102Z,32.25
2023-05-20T02:06:22.597Z,33.73
2023-05-20T02:09:39.299Z,37.43
2023-05-20T02:12:56.726Z,36.63
2023-05-20T02:16:14.584Z,37.00
2023-05-20T02:19:32.225Z,39.88
2023-05-20T02:22:49.556Z,40.50
2023-05-20T02:26:06.400Z,38.95
2023-05-20T02:29:25.844Z,37.80
2023-05-20T02:32:43.368Z,36.68
2023-05-20T02:36:00.819Z,38.03
2023-05-20T02:39:20.281Z,39.33
2023-05-20T02:42:36.857Z,39.28
2023-05-20T02:45:53.760Z,36.10
2023-05-20T02:49:10.713Z,34.05
2023-05-20T02:52:28.720Z,33.58
2023-05-20T02:55:48.248Z,33.38
2023-05-20T02:59:05.772Z,33.05
2023-05-20T03:02:24.278Z,31.08
2023-05-20T03:05:43.528Z,33.43
2023-05-20T03:09:00.223Z,32.33
2023-05-20T03:12:17.305Z,33.23
2023-05-20T03:15:34.267Z,31.58
2023-05-20T03:18:51.419Z,31.50
2023-05-20T03:22:08.641Z,31.50
2023-05-20T03:25:25.763Z,29.58
2023-05-20T03:28:42.615Z,29.65
2023-05-20T03:32:01.932Z,31.98
2023-05-20T03:35:20.042Z,30.45
2023-05-20T03:38:38.335Z,32.13
2023-05-20T03:41:55.006Z,32.73
2023-05-20T03:45:12.797Z,31.18
2023-05-20T03:48:33.986Z,31.25
2023-05-20T03:51:50.494Z,31.00
2023-05-20T03:55:07.614Z,30.63
2023-05-20T03:58:26.186Z,28.40
2023-05-20T04:01:42.811Z,29.98
2023-05-20T04:05:03.351Z,28.20
2023-05-20T04:08:20.790Z,28.75
2023-05-20T04:11:37.914Z,25.93
2023-05-20T04:14:56.489Z,28.40
2023-05-20T04:18:14.203Z,27.05
2023-05-20T04:21:31.097Z,26.05
2023-05-20T04:24:48.822Z,26.80
2023-05-20T04:28:06.025Z,25.93
2023-05-20T04:31:26.343Z,26.13
2023-05-20T04:34:43.965Z,26.28
2023-05-20T04:38:01.886Z,24.50
2023-05-20T04:41:19.520Z,25.13
2023-05-20T04:44:39.485Z,27.15
2023-05-20T04:47:57.803Z,25.60
2023-05-20T04:51:14.719Z,25.90
2023-05-20T04:54:33.790Z,27.15
2023-05-20T04:57:50.791Z,24.10
2023-05-20T05:01:07.489Z,25.43
2023-05-20T05:04:24.714Z,28.65
2023-05-20T05:07:41.566Z,25.88
2023-05-20T05:11:00.631Z,27.53
2023-05-20T05:14:17.816Z,26.78
2023-05-20T05:17:34.587Z,28.13
2023-05-20T05:20:53.707Z,26.30
2023-05-20T05:24:10.638Z,29.60
2023-05-20T05:27:27.243Z,28.55
2023-05-20T05:30:44.573Z,28.83
2023-05-20T05:34:04.184Z,29.15
2023-05-20T05:37:21.031Z,28.73
2023-05-20T05:40:41.233Z,27.93
2023-05-20T05:43:58.209Z,28.55
2023-05-20T05:47:18.465Z,30.03
2023-05-20T05:50:36.931Z,29.58
2023-05-20T05:53:54.381Z,29.53
2023-05-20T05:57:13.918Z,29.95
2023-05-20T06:00:30.767Z,31.15
2023-05-20T06:03:47.483Z,30.43
2023-05-20T06:07:07.371Z,30.60
2023-05-20T06:10:25.152Z,30.55
2023-05-20T06:13:41.993Z,28.43
2023-05-20T06:16:59.189Z,32.63
2023-05-20T06:20:18.847Z,33.08
2023-05-20T06:23:35.820Z,31.68
2023-05-20T06:26:55.800Z,34.53
2023-05-20T06:30:20.603Z,32.85
2023-05-20T06:33:53.457Z,33.78
2023-05-20T06:37:17.182Z,31.60
2023-05-20T06:40:34.972Z,31.33
2023-05-20T06:43:53.494Z,32.78
2023-05-20T06:47:20.160Z,32.08
2023-05-20T06:50:38.350Z,31.25
2023-05-20T06:53:55.296Z,33.65
2023-05-20T06:57:12.720Z,31.23
2023-05-20T07:00:30.726Z,32.53
2023-05-20T07:03:50.012Z,29.95
2023-05-20T07:07:07.923Z,30.75
2023-05-20T07:10:26.603Z,29.38
2023-05-20T07:13:43.671Z,29.80
2023-05-20T07:17:07.109Z,27.35
2023-05-20T07:20:28.903Z,28.83
2023-05-20T07:23:49.947Z,24.43
2023-05-20T07:27:07.071Z,28.93
2023-05-20T07:30:24.490Z,27.38
2023-05-20T07:33:43.357Z,29.70
2023-05-20T07:37:00.810Z,26.00
2023-05-20T07:40:21.857Z,27.30
2023-05-20T07:43:39.456Z,27.30
2023-05-20T07:46:56.432Z,26.25
2023-05-20T07:50:15.368Z,26.43
2023-05-20T07:53:32.721Z,25.98
2023-05-20T07:56:49.361Z,26.48
2023-05-20T08:00:07.325Z,25.70
2023-05-20T08:03:27.783Z,27.08
2023-05-20T08:06:49.122Z,23.65
2023-05-20T08:10:09.977Z,25.88
2023-05-20T08:13:32.478Z,23.55
2023-05-20T08:16:54.809Z,25.40
2023-05-20T08:20:13.861Z,24.53
2023-05-20T08:23:31.705Z,25.90
2023-05-20T08:26:49.570Z,27.98
2023-05-20T08:30:09.127Z,29.33
2023-05-20T08:33:28.209Z,30.08
2023-05-20T08:36:46.183Z,27.08
2023-05-20T08:40:11.897Z,41.83
2023-05-20T08:43:40.032Z,32.58
2023-05-20T08:47:01.909Z,27.15
2023-05-20T08:50:23.108Z,30.08
2023-05-20T08:53:40.571Z,28.65
2023-05-20T08:57:03.990Z,29.88
2023-05-20T09:00:26.487Z,29.63
2023-05-20T09:03:44.316Z,29.65
2023-05-20T09:07:01.416Z,28.25
2023-05-20T09:10:22.035Z,32.33
2023-05-20T09:13:40.596Z,30.23
2023-05-20T09:16:58.999Z,29.35
2023-05-20T09:20:20.753Z,28.13
2023-05-20T09:23:42.531Z,28.15
2023-05-20T09:26:59.681Z,30.93
2023-05-20T09:30:20.837Z,27.45
2023-05-20T09:33:40.064Z,29.33
2023-05-20T09:40:18.502Z,30.13
2023-05-20T09:43:36.020Z,29.88
2023-05-20T09:46:55.732Z,29.15
2023-05-20T09:50:17.226Z,29.40
2023-05-20T09:53:35.740Z,37.68
2023-05-20T09:56:54.303Z,30.38
2023-05-20T10:00:14.730Z,31.40
2023-05-20T10:03:36.902Z,33.53
2023-05-20T10:07:15.395Z,28.90
2023-05-20T10:10:42.065Z,31.08
2023-05-20T10:14:34.663Z,27.90
2023-05-20T10:17:57.245Z,28.23
2023-05-20T10:21:23.297Z,29.40
2023-05-20T10:24:46.533Z,28.98
2023-05-20T10:28:15.204Z,29.65
2023-05-20T10:31:36.212Z,26.30
2023-05-20T10:38:21.784Z,23.78
2023-05-20T10:41:39.008Z,25.08
2023-05-20T10:44:56.148Z,24.70
2023-05-20T10:48:13.591Z,25.75
2023-05-20T10:51:32.808Z,39.03
2023-05-20T10:58:09.933Z,23.28
2023-05-20T11:01:29.907Z,23.13
2023-05-20T11:04:47.590Z,22.55
2023-05-20T11:08:27.183Z,20.40
2023-05-20T11:11:31.313Z,20.68
2023-05-20T11:14:48.468Z,21.95
2023-05-20T11:18:08.321Z,23.70
2023-05-20T11:21:26.442Z,22.10
2023-05-20T11:24:43.485Z,22.77
2023-05-20T11:28:00.505Z,22.18
2023-05-20T11:31:18.855Z,22.90
2023-05-20T11:34:40.886Z,23.23
2023-05-20T11:38:04.487Z,23.05
2023-05-20T11:41:22.285Z,22.43
2023-05-20T11:44:39.389Z,24.83
2023-05-20T11:48:08.037Z,27.75
2023-05-20T11:51:24.766Z,25.58
2023-05-20T11:54:45.096Z,24.85
2023-05-20T11:58:04.608Z,22.43
2023-05-20T12:01:23.500Z,20.98
2023-05-20T12:04:41.823Z,22.88
2023-05-20T12:07:58.669Z,25.43
2023-05-20T12:11:15.621Z,22.70
2023-05-20T12:14:32.379Z,23.50
2023-05-20T12:17:57.444Z,22.03
2023-05-20T12:21:14.228Z,23.85
2023-05-20T12:24:31.004Z,20.08
2023-05-20T12:27:49.122Z,21.75
2023-05-20T12:31:05.857Z,21.03
2023-05-20T12:34:22.715Z,19.63
2023-05-20T12:37:39.845Z,18.23
2023-05-20T12:40:56.531Z,19.93
2023-05-20T12:44:14.161Z,17.65
2023-05-20T12:47:31.551Z,18.18
2023-05-20T12:50:48.338Z,17.50
2023-05-20T12:54:05.470Z,16.88
2023-05-20T12:57:22.531Z,32.90
2023-05-20T13:00:39.431Z,21.15
2023-05-20T13:03:56.749Z,17.40
2023-05-20T13:07:13.789Z,16.80
2023-05-20T13:10:30.759Z,16.55
2023-05-20T13:13:47.415Z,14.93
2023-05-20T13:17:04.349Z,15.13
2023-05-20T13:20:22.598Z,15.03
2023-05-20T13:23:39.366Z,14.77
2023-05-20T13:26:56.016Z,15.28
2023-05-20T13:30:14.677Z,15.50
2023-05-20T13:33:31.534Z,16.28
2023-05-20T13:36:48.811Z,14.43
2023-05-20T13:40:05.680Z,14.70
2023-05-20T13:43:22.570Z,14.50
2023-05-20T13:46:39.314Z,15.10
2023-05-20T13:49:56.074Z,45.83
2023-05-20T13:53:14.613Z,17.05
2023-05-20T13:56:31.306Z,13.53
2023-05-20T13:59:48.003Z,14.05
2023-05-20T14:03:05.812Z,13.40
2023-05-20T14:06:22.879Z,12.40
2023-05-20T14:09:39.529Z,27.33
2023-05-20T14:12:56.458Z,12.33
2023-05-20T14:16:13.915Z,12.98
2023-05-20T14:19:30.722Z,12.73
2023-05-20T14:22:47.395Z,13.53
2023-05-20T14:26:04.284Z,13.40
2023-05-20T14:29:20.914Z,12.20
2023-05-20T14:32:38.123Z,10.85
2023-05-20T14:35:55.275Z,11.55
2023-05-20T14:39:13.246Z,14.15
2023-05-20T14:42:30.126Z,11.88
2023-05-20T14:45:47.581Z,10.55
2023-05-20T14:49:04.481Z,21.50
2023-05-20T14:52:21.394Z,16.53
2023-05-20T14:55:38.276Z,10.90
2023-05-20T14:58:55.705Z,10.58
2023-05-20T15:02:15.439Z,11.08
2023-05-20T15:05:31.882Z,10.23
2023-05-20T15:08:48.761Z,10.65
2023-05-20T15:12:05.467Z,10.80
2023-05-20T15:15:22.694Z,10.48
2023-05-20T15:18:40.307Z,10.73
2023-05-20T15:21:57.235Z,8.65
2023-05-20T15:25:15.258Z,9.83
2023-05-20T15:28:32.144Z,8.38
2023-05-20T15:34:52.040Z,9.15
2023-05-20T15:38:08.895Z,8.43
2023-05-20T15:41:26.971Z,9.53
2023-05-20T15:44:43.830Z,8.83
2023-05-20T15:48:00.931Z,8.78
2023-05-20T15:51:18.899Z,9.88
2023-05-20T15:54:35.753Z,8.13
2023-05-20T15:57:52.758Z,7.83
2023-05-20T16:01:09.674Z,7.78
2023-05-20T16:04:27.233Z,8.45
2023-05-20T16:07:44.324Z,7.30
2023-05-20T16:11:00.972Z,7.10
2023-05-20T16:14:17.790Z,7.35
2023-05-20T16:17:35.486Z,6.68
2023-05-20T16:20:52.255Z,6.73
2023-05-20T16:24:10.162Z,6.65
2023-05-20T16:27:26.918Z,6.97
2023-05-20T16:30:44.811Z,7.30
2023-05-20T16:34:02.031Z,6.58
2023-05-20T16:37:19.684Z,7.35
2023-05-20T16:40:36.685Z,7.10
2023-05-20T16:43:53.254Z,7.03
2023-05-20T16:47:10.096Z,6.73
2023-05-20T16:50:27.031Z,7.40
2023-05-20T16:53:44.206Z,7.48
2023-05-20T16:57:00.836Z,6.65
2023-05-20T17:00:21.916Z,7.30
2023-05-20T17:03:40.616Z,6.88
2023-05-20T17:06:57.801Z,6.25
2023-05-20T17:10:16.927Z,7.10
2023-05-20T17:13:33.645Z,6.60
2023-05-20T17:16:50.286Z,6.98
2023-05-20T17:20:07.288Z,6.75
2023-05-20T17:23:24.516Z,6.48
2023-05-20T17:26:41.966Z,6.95
2023-05-20T17:29:59.550Z,8.10
2023-05-20T17:33:16.211Z,7.65
2023-05-20T17:36:33.696Z,6.85
2023-05-20T17:39:52.146Z,45.63
2023-05-20T17:43:08.986Z,8.40
2023-05-20T17:46:25.698Z,7.85
2023-05-20T17:49:42.594Z,7.18
2023-05-20T17:52:59.261Z,8.08
2023-05-20T17:56:16.836Z,7.15
2023-05-20T17:59:34.815Z,7.53
2023-05-20T18:06:07.543Z,7.80
2023-05-20T18:09:26.303Z,7.35
2023-05-20T18:12:43.657Z,6.88
2023-05-20T18:16:00.654Z,6.85
2023-05-20T18:19:17.645Z,6.10
2023-05-20T18:22:34.528Z,6.85
2023-05-20T18:25:51.644Z,6.73
2023-05-20T18:29:08.662Z,6.63
2023-05-20T18:32:27.835Z,6.28
2023-05-20T18:35:58.289Z,6.43
2023-05-20T18:39:16.611Z,7.05
2023-05-20T18:42:33.276Z,7.35
2023-05-20T18:45:50.085Z,7.65
2023-05-20T18:49:06.501Z,7.70
2023-05-20T18:52:23.209Z,7.10
2023-05-20T18:55:39.866Z,7.10
2023-05-20T18:58:56.589Z,7.03
2023-05-20T19:02:15.130Z,7.60
2023-05-20T19:05:32.322Z,8.65
2023-05-20T19:08:50.179Z,7.75
2023-05-20T19:12:07.688Z,7.43
2023-05-20T19:15:26.789Z,7.95
2023-05-20T19:18:43.457Z,9.53
2023-05-20T19:22:00.476Z,8.95
2023-05-20T19:25:18.120Z,9.15
2023-05-20T19:28:34.875Z,8.95
2023-05-20T19:31:54.844Z,9.38
2023-05-20T19:35:12.192Z,8.50
2023-05-20T19:38:28.707Z,9.53
2023-05-20T19:41:45.574Z,10.45
2023-05-20T19:45:02.737Z,8.55
2023-05-20T19:48:21.962Z,10.08
2023-05-20T19:51:38.183Z,9.85
2023-05-20T19:54:56.670Z,9.13
2023-05-20T19:58:13.235Z,9.30
2023-05-20T20:01:35.607Z,18.78
2023-05-20T20:04:53.192Z,10.73
2023-05-20T20:08:10.860Z,9.53
2023-05-20T20:11:29.059Z,9.50
2023-05-20T20:14:45.773Z,9.25
2023-05-20T20:18:02.163Z,9.10
2023-05-20T20:21:18.960Z,9.70
2023-05-20T20:24:36.097Z,9.40
2023-05-20T20:27:52.942Z,9.88
2023-05-20T20:31:10.053Z,9.55
2023-05-20T20:34:26.775Z,10.93
2023-05-20T20:37:45.795Z,9.73
2023-05-20T20:44:21.882Z,10.65
2023-05-20T20:47:39.420Z,11.03
2023-05-20T20:50:57.375Z,10.03
2023-05-20T20:54:15.274Z,10.28
2023-05-20T20:57:35.229Z,9.53
2023-05-20T21:00:52.148Z,10.85
2023-05-20T21:04:10.393Z,11.63
2023-05-20T21:07:27.084Z,11.38
2023-05-20T21:10:43.954Z,11.15
2023-05-20T21:14:00.715Z,10.85
2023-05-20T21:17:17.875Z,11.95
2023-05-20T21:20:36.036Z,10.30
2023-05-20T21:23:55.107Z,11.17
2023-05-20T21:27:12.019Z,11.33
2023-05-20T21:30:28.635Z,10.53
2023-05-20T21:33:45.563Z,12.73
2023-05-20T21:37:02.309Z,11.60
2023-05-20T21:40:21.014Z,11.43
2023-05-20T21:43:38.435Z,11.58
2023-05-20T21:46:55.191Z,11.53
2023-05-20T21:50:14.687Z,11.08
2023-05-20T21:53:31.503Z,11.48
2023-05-20T21:56:48.059Z,10.43
2023-05-20T22:00:05.848Z,11.65
2023-05-20T22:03:22.965Z,12.60
2023-05-20T22:06:40.730Z,13.08
2023-05-20T22:09:58.066Z,13.25
2023-05-20T22:13:16.211Z,16.83
2023-05-20T22:16:32.816Z,16.43
2023-05-20T22:19:50.887Z,14.85
2023-05-20T22:23:08.303Z,12.45
2023-05-20T22:26:26.250Z,12.35
2023-05-20T22:29:43.925Z,12.53
2023-05-20T22:33:01.691Z,11.50
2023-05-20T22:36:19.242Z,11.90
2023-05-20T22:39:37.499Z,11.65
2023-05-20T22:42:54.648Z,12.30
2023-05-20T22:46:11.408Z,11.78
2023-05-20T22:49:29.538Z,11.58
2023-05-20T22:52:46.178Z,12.88
2023-05-20T22:56:03.311Z,12.68
2023-05-20T22:59:20.072Z,11.45
2023-05-20T23:02:36.950Z,12.20
2023-05-20T23:05:53.958Z,11.70
2023-05-20T23:09:10.826Z,12.55
2023-05-20T23:12:28.870Z,13.25
2023-05-20T23:15:47.419Z,15.05
2023-05-20T23:19:04.227Z,12.50
2023-05-20T23:22:21.523Z,13.23
2023-05-20T23:25:39.013Z,12.68
2023-05-20T23:28:56.539Z,13.20
2023-05-20T23:32:14.138Z,13.13
2023-05-20T23:35:30.923Z,13.00
2023-05-20T23:38:48.046Z,15.20
2023-05-20T23:42:04.753Z,14.28
2023-05-20T23:45:22.568Z,13.55
2023-05-20T23:48:39.442Z,14.60
2023-05-20T23:51:57.140Z,14.28
2023-05-20T23:55:15.773Z,13.78
2023-05-20T23:58:32.682Z,15.70
